createdAt,value
2018-09-05T00:01:41.028Z,64.10
2018-09-05T00:06:44.127Z,64.30
2018-09-05T00:11:47.239Z,64.40
2018-09-05T00:16:50.334Z,64.70
2018-09-05T00:21:53.440Z,64.70
2018-09-05T00:26:56.575Z,64.80
2018-09-05T00:31:59.726Z,65.00
2018-09-05T00:37:02.931Z,65.00
2018-09-05T00:42:06.035Z,65.40
2018-09-05T00:47:09.126Z,65.50
2018-09-05T00:52:12.244Z,64.80
2018-09-05T00:57:15.362Z,65.00
2018-09-05T01:02:18.459Z,65.00
2018-09-05T01:07:26.445Z,65.40
2018-09-05T01:12:29.531Z,65.10
2018-09-05T01:17:32.655Z,65.60
2018-09-05T01:22:35.754Z,66.10
2018-09-05T01:27:38.846Z,65.20
2018-09-05T01:32:41.958Z,65.30
2018-09-05T01:37:45.068Z,65.00
2018-09-05T01:42:48.202Z,65.30
2018-09-05T01:47:51.328Z,65.10
2018-09-05T01:52:54.430Z,65.50
2018-09-05T01:57:57.536Z,65.10
2018-09-05T02:03:00.848Z,65.50
2018-09-05T02:08:03.914Z,65.80
2018-09-05T02:13:07.033Z,65.80
2018-09-05T02:18:10.154Z,66.30
2018-09-05T02:23:13.285Z,66.20
2018-09-05T02:28:16.459Z,66.30
2018-09-05T02:33:19.571Z,66.50
2018-09-05T02:38:22.678Z,66.10
2018-09-05T02:43:31.186Z,66.30
2018-09-05T02:48:34.272Z,67.00
2018-09-05T02:53:37.414Z,66.60
2018-09-05T02:58:40.526Z,66.70
2018-09-05T03:03:43.616Z,66.40
2018-09-05T03:08:46.707Z,66.70
2018-09-05T03:13:49.835Z,66.70
2018-09-05T03:18:52.940Z,66.70
2018-09-05T03:23:56.042Z,66.80
2018-09-05T03:28:59.315Z,67.50
2018-09-05T03:34:02.398Z,67.40
2018-09-05T03:39:07.311Z,67.60
2018-09-05T03:44:10.452Z,67.70
2018-09-05T03:49:13.572Z,67.80
2018-09-05T03:54:16.682Z,68.00
2018-09-05T03:59:19.800Z,68.00
2018-09-05T04:04:22.915Z,68.30
2018-09-05T04:09:26.024Z,68.50
2018-09-05T04:14:29.139Z,68.70
2018-09-05T04:19:32.271Z,68.90
2018-09-05T04:24:35.359Z,68.90
2018-09-05T04:29:38.544Z,68.70
2018-09-05T04:34:41.608Z,68.90
2018-09-05T04:39:44.811Z,69.20
2018-09-05T04:44:48.024Z,68.90
2018-09-05T04:49:51.215Z,69.10
2018-09-05T04:54:54.323Z,69.30
2018-09-05T04:59:57.452Z,69.70
2018-09-05T05:05:00.639Z,69.50
2018-09-05T05:10:03.751Z,70.20
2018-09-05T05:15:06.874Z,71.00
2018-09-05T05:20:09.979Z,71.10
2018-09-05T05:25:13.079Z,71.70
2018-09-05T05:30:16.182Z,71.30
2018-09-05T05:35:19.297Z,71.60
2018-09-05T05:40:22.521Z,71.50
2018-09-05T05:45:25.494Z,71.40
2018-09-05T05:50:28.596Z,71.30
2018-09-05T05:55:31.935Z,71.50
2018-09-05T06:00:34.974Z,72.30
2018-09-05T06:05:38.087Z,73.20
2018-09-05T06:10:41.181Z,73.00
2018-09-05T06:15:44.263Z,72.90
2018-09-05T06:21:18.119Z,73.90
2018-09-05T06:26:21.235Z,73.90
2018-09-05T06:31:24.355Z,74.60
2018-09-05T06:36:27.462Z,74.30
2018-09-05T06:41:30.584Z,74.20
2018-09-05T06:46:33.811Z,74.70
2018-09-05T06:51:36.908Z,74.10
2018-09-05T06:56:40.017Z,75.00
2018-09-05T07:01:43.097Z,75.70
2018-09-05T07:06:46.399Z,75.80
2018-09-05T07:11:49.568Z,75.60
2018-09-05T07:16:52.772Z,75.20
2018-09-05T07:21:55.886Z,75.00
2018-09-05T07:26:58.987Z,74.20
2018-09-05T07:32:02.103Z,74.90
2018-09-05T07:37:05.314Z,75.00
2018-09-05T07:42:08.451Z,77.60
2018-09-05T07:47:11.622Z,76.30
2018-09-05T07:52:14.827Z,77.00
2018-09-05T07:57:18.045Z,75.70
2018-09-05T08:02:21.143Z,75.40
2018-09-05T08:07:24.351Z,75.90
2018-09-05T08:12:27.567Z,76.20
2018-09-05T08:17:30.769Z,75.20
2018-09-05T08:22:33.990Z,74.90
2018-09-05T08:27:37.065Z,75.10
2018-09-05T08:32:40.152Z,75.10
2018-09-05T08:37:43.349Z,74.60
2018-09-05T08:42:46.337Z,74.50
2018-09-05T08:47:49.528Z,73.30
2018-09-05T08:52:52.549Z,74.00
2018-09-05T08:57:55.622Z,73.40
2018-09-05T09:02:58.777Z,73.00
2018-09-05T09:08:01.840Z,73.00
2018-09-05T09:13:04.919Z,72.70
2018-09-05T09:18:08.028Z,72.50
2018-09-05T09:23:11.123Z,71.70
2018-09-05T09:28:14.240Z,72.10
2018-09-05T09:33:17.349Z,71.50
2018-09-05T09:38:20.472Z,71.30
2018-09-05T09:43:23.587Z,70.40
2018-09-05T09:48:26.695Z,70.30
2018-09-05T09:53:29.823Z,71.20
2018-09-05T09:58:32.892Z,69.50
2018-09-05T10:03:41.710Z,69.70
2018-09-05T10:08:50.052Z,68.50
2018-09-05T10:13:58.595Z,68.80
2018-09-05T10:19:05.945Z,68.60
2018-09-05T10:24:09.111Z,68.30
2018-09-05T10:29:12.215Z,66.80
2018-09-05T10:34:15.325Z,67.60
2018-09-05T10:39:18.428Z,65.20
2018-09-05T10:44:21.508Z,64.50
2018-09-05T10:49:24.603Z,63.80
2018-09-05T10:54:27.728Z,63.70
2018-09-05T10:59:30.840Z,62.10
2018-09-05T11:04:33.922Z,61.10
2018-09-05T11:09:37.023Z,62.00
2018-09-05T11:14:40.107Z,61.10
2018-09-05T11:19:43.180Z,60.60
2018-09-05T11:24:46.279Z,60.10
2018-09-05T11:29:49.404Z,60.80
2018-09-05T11:34:52.530Z,60.70
2018-09-05T11:39:56.263Z,60.70
2018-09-05T11:44:59.356Z,59.90
2018-09-05T11:50:02.452Z,60.00
2018-09-05T11:55:05.583Z,58.70
2018-09-05T12:00:08.708Z,57.60
2018-09-05T12:05:11.792Z,58.20
2018-09-05T12:10:14.895Z,58.00
2018-09-05T12:15:18.028Z,57.50
2018-09-05T12:20:21.160Z,57.00
2018-09-05T12:25:24.268Z,55.30
2018-09-05T12:30:27.363Z,55.00
2018-09-05T12:35:30.458Z,54.50
2018-09-05T12:40:33.571Z,55.10
2018-09-05T12:45:36.673Z,55.20
2018-09-05T12:50:39.771Z,54.10
2018-09-05T12:55:42.887Z,53.50
2018-09-05T13:00:46.059Z,53.40
2018-09-05T13:05:49.164Z,53.40
2018-09-05T13:10:52.283Z,53.00
2018-09-05T13:15:55.382Z,52.10
2018-09-05T13:20:58.492Z,51.20
2018-09-05T13:26:01.712Z,51.60
2018-09-05T13:31:04.832Z,51.50
2018-09-05T13:36:07.961Z,51.20
2018-09-05T13:41:11.077Z,51.30
2018-09-05T13:46:14.180Z,50.30
2018-09-05T13:51:17.285Z,50.90
2018-09-05T13:56:20.442Z,51.70
2018-09-05T14:01:23.482Z,51.40
2018-09-05T14:06:26.583Z,50.90
2018-09-05T14:11:29.690Z,50.50
2018-09-05T14:16:32.800Z,50.80
2018-09-05T14:21:35.908Z,50.70
2018-09-05T14:26:39.008Z,50.20
2018-09-05T14:31:42.079Z,50.80
2018-09-05T14:36:45.198Z,50.50
2018-09-05T14:41:48.308Z,50.20
2018-09-05T14:46:51.412Z,50.20
2018-09-05T14:51:54.536Z,50.70
2018-09-05T14:56:57.623Z,52.00
2018-09-05T15:02:00.757Z,50.20
2018-09-05T15:07:03.854Z,49.70
2018-09-05T15:12:06.959Z,49.20
2018-09-05T15:17:10.056Z,50.50
2018-09-05T15:22:13.144Z,50.10
2018-09-05T15:27:16.274Z,50.10
2018-09-05T15:32:19.363Z,50.70
2018-09-05T15:37:22.550Z,50.50
2018-09-05T15:42:25.676Z,50.30
2018-09-05T15:47:28.756Z,50.20
2018-09-05T15:52:31.838Z,50.30
2018-09-05T15:57:34.979Z,50.20
2018-09-05T16:02:38.015Z,50.10
2018-09-05T16:07:41.123Z,50.40
2018-09-05T16:12:44.204Z,50.20
2018-09-05T16:17:47.303Z,51.00
2018-09-05T16:22:50.398Z,51.00
2018-09-05T16:27:53.499Z,50.70
2018-09-05T16:32:56.621Z,50.40
2018-09-05T16:38:00.492Z,50.90
2018-09-05T16:43:03.680Z,50.60
2018-09-05T16:48:07.120Z,50.80
2018-09-05T16:53:10.277Z,50.70
2018-09-05T16:58:13.363Z,50.50
2018-09-05T17:03:16.442Z,51.00
2018-09-05T17:08:19.550Z,51.00
2018-09-05T17:13:22.656Z,51.00
2018-09-05T17:18:25.782Z,50.50
2018-09-05T17:23:28.939Z,50.70
2018-09-05T17:28:32.162Z,50.50
2018-09-05T17:33:35.546Z,50.70
2018-09-05T17:38:38.731Z,51.00
2018-09-05T17:43:41.843Z,51.20
2018-09-05T17:48:44.945Z,51.20
2018-09-05T17:53:48.036Z,51.20
2018-09-05T17:58:51.340Z,51.60
2018-09-05T18:03:54.442Z,51.60
2018-09-05T18:08:57.557Z,51.80
2018-09-05T18:14:00.670Z,51.80
2018-09-05T18:19:03.795Z,52.00
2018-09-05T18:24:06.927Z,52.40
2018-09-05T18:29:10.286Z,52.60
2018-09-05T18:34:13.431Z,53.30
2018-09-05T18:39:16.545Z,54.20
2018-09-05T18:44:19.659Z,55.60
2018-09-05T18:49:22.796Z,56.10
2018-09-05T18:54:25.923Z,56.60
2018-09-05T18:59:29.027Z,57.00
2018-09-05T19:04:32.141Z,57.50
2018-09-05T19:09:35.235Z,57.90
2018-09-05T19:14:38.370Z,58.30
2018-09-05T19:19:41.460Z,58.50
2018-09-05T19:24:44.560Z,58.60
2018-09-05T19:29:47.656Z,59.20
2018-09-05T19:34:50.792Z,59.20
2018-09-05T19:39:53.925Z,59.50
2018-09-05T19:44:57.051Z,59.90
2018-09-05T19:50:00.233Z,59.90
2018-09-05T19:55:03.324Z,60.00
2018-09-05T20:00:06.496Z,60.40
2018-09-05T20:05:09.769Z,61.10
2018-09-05T20:10:13.040Z,61.00
2018-09-05T20:15:16.146Z,61.20
2018-09-05T20:20:19.321Z,61.40
2018-09-05T20:25:22.411Z,61.80
2018-09-05T20:30:25.511Z,61.70
2018-09-05T20:35:28.622Z,62.00
2018-09-05T20:40:31.719Z,62.30
2018-09-05T20:45:34.806Z,62.20
2018-09-05T20:50:37.887Z,63.20
2018-09-05T20:55:41.061Z,62.80
2018-09-05T21:00:44.247Z,63.20
2018-09-05T21:05:47.346Z,63.10
2018-09-05T21:10:50.495Z,63.10
2018-09-05T21:15:53.585Z,63.40
2018-09-05T21:20:59.098Z,63.20
2018-09-05T21:26:02.172Z,63.20
2018-09-05T21:31:05.495Z,63.40
2018-09-05T21:36:08.574Z,63.40
2018-09-05T21:41:11.691Z,63.10
2018-09-05T21:46:14.784Z,63.20
2018-09-05T21:51:17.868Z,62.60
2018-09-05T21:56:20.962Z,62.80
2018-09-05T22:01:24.107Z,62.60
2018-09-05T22:06:27.216Z,62.50
2018-09-05T22:11:30.371Z,62.40
2018-09-05T22:16:33.454Z,62.30
2018-09-05T22:21:36.543Z,62.40
2018-09-05T22:26:39.685Z,62.60
2018-09-05T22:31:42.778Z,62.70
2018-09-05T22:36:45.906Z,62.50
2018-09-05T22:41:48.995Z,62.60
2018-09-05T22:47:03.438Z,62.60
2018-09-05T22:53:24.204Z,62.60
2018-09-05T22:58:48.607Z,62.50
2018-09-05T23:04:07.020Z,62.70
2018-09-05T23:09:10.145Z,62.70
2018-09-05T23:14:38.908Z,62.70
2018-09-05T23:20:06.317Z,62.90
2018-09-05T23:25:09.437Z,63.00
2018-09-05T23:30:12.542Z,63.00
2018-09-05T23:35:15.660Z,63.00
2018-09-05T23:40:18.765Z,62.90
2018-09-05T23:45:21.913Z,62.70
2018-09-05T23:50:25.036Z,62.50
2018-09-05T23:55:28.146Z,62.40
